Etusivu
METAR-TAF:

METAR-TAF

Lentoasemat :

Kansas Cityn kansainvälinen lentoasema

Kansas City, Missouri, Yhdysvallat

Leveyspiiri: 39-17-50N, Pituuspiiri: 094-43-50W, korkeus merenpinnasta: 312 m

Tämänhetkinen sää

Tämä raportti tehtiin 1 tunti ja 6 minuuttia sitten, kello 10.53 UTC
Tuuli 4 kn etelästä/kaakosta
Lämpötila 11°C
Kosteus 94%
Ilmanpaine 1019 hPa
Näkyvyys: 16.1 km
selkeää

METAR: KMCI 231053Z 15004KT 10SM CLR 11/10 A3008 RMK AO2 SLP181 T01110100

Aika: 06:59 (11:59 UTC)

Sääennuste

Tämä raportti tehtiin 39 minuuttia sitten, kello 11.20 UTC
Ennuste voimassa 23. päivästä klo 12 UTC - 24. päivään klo 12 UTC
Tuuli 6 kn kaakosta
Näkyvyys: 10 km
selkeää

TAF: KMCI 231120Z 2312/2412 14006KT P6SM SKC

Säähavainnot ja -ennusteet yli 4000 lentoasemalta (METAR- ja TAF-raportit).

Käytössä olevat sääasemat on merkitty karttaan keltaisilla ja punaisilla pisteillä.

Aseta hiiri pisteen päälle nähdäksesi sääaseman nimen.

Klikkaa sitten nähdäksesi säähavainnot ja -ennusteet.

Kartan vaihtaminen: klikkaa mustalla rastilla varustettuja vihreitä pisteitä, niin voit zoomata sisään; viivalla varustettua vihreää pistettä, niin voit zoomata ulos tai vihreitä nuolia, niin pääset viereisille kartoille.


METAR-TAF: